Main page
METAR-TAF:

METAR-TAF

Airports :

Glasgow, Scotland

Glasgow Airport

latitude: 55-52N, longitude: 004-26W, elevation: 8 m

Current weather observation

The report was made 24 minutes ago, at 08:20 UTC
Wind 9 kt from the West
Temperature 13°C
Humidity 77%
Pressure 1017 hPa
Visibility 10 km or more
Few clouds at a height of 1800 ft

METAR: EGPF 230820Z AUTO 26009KT 9999 FEW018 13/09 Q1017

Time: 09:44 (08:44 UTC)

Forecast

The report was made 3 hours and 47 minutes ago, at 04:57 UTC
Forecast valid from 23 at 06 UTC to 24 at 06 UTC
Wind 8 kt from the West/Southwest
Visibility 10 km or more
Scattered clouds at a height of 2000 ft
Probability 30% :
Temporary
from 23 at 06 UTC to 23 at 08 UTC
Visibility: 8000 m
Probability 30% :
Temporary
from 23 at 21 UTC to 24 at 06 UTC
Visibility: 8000 m
Broken clouds at a height of 800 ft
light rain

TAF: EGPF 230457Z 2306/2406 24008KT 9999 SCT020 PROB30 TEMPO 2306/2308 8000 PROB30 TEMPO 2321/2406 8000 -RA BKN008

Weather observations and forecasts of more than 4000 airports (METAR and TAF reports).

The available stations are represented by yellow and red dots on the map.

Hover mouse over dot to see the name of the station.

Then click to see weather observations and forecasts.

To change the map : click on the green buttons with a black cross to zoom in, on the green button with a dash to zoom out, or on the green arrows for adjacent maps.


METAR-TAF: